Time;durP1;ratioP1;P1;durP2;ratioP2;P2;SDS_P1;SDS_P2;PMS_P1;PMS_P2;Temp;Humidity;BMP_temperature;BMP_pressure;BME280_temperature;BME280_humidity;BME280_pressure;Samples;Min_cycle;Max_cycle;Signal;HPM_P1;HPM_P2
2022/06/14 00:01:17;;;;;;;3.75;2.72;;;15.90;99.90;;;;;;5070321;28;20636;-59
2022/06/14 00:03:44;;;;;;;4.13;2.60;;;15.90;99.90;;;;;;5070523;28;20229;-59
2022/06/14 00:06:16;;;;;;;4.50;2.78;;;15.90;99.90;;;;;;5070820;28;20188;-59
2022/06/14 00:08:41;;;;;;;6.78;2.80;;;15.90;99.90;;;;;;5071201;28;20189;-62
2022/06/14 00:11:10;;;;;;;4.40;2.75;;;15.90;99.90;;;;;;5070588;28;20234;-59
2022/06/14 00:13:36;;;;;;;4.57;2.70;;;15.90;99.90;;;;;;5072317;28;20204;-59
2022/06/14 00:16:02;;;;;;;6.30;2.88;;;15.90;99.90;;;;;;5074236;28;20632;-59
2022/06/14 00:18:28;;;;;;;5.65;2.67;;;15.80;99.90;;;;;;5074178;28;20177;-59
2022/06/14 00:20:53;;;;;;;5.25;3.30;;;15.80;99.90;;;;;;5073877;28;20221;-59
2022/06/14 00:23:19;;;;;;;4.45;2.92;;;15.80;99.90;;;;;;5073916;28;20581;-59
2022/06/14 00:25:48;;;;;;;7.05;2.88;;;15.70;99.90;;;;;;5074126;28;20177;-59
2022/06/14 00:28:15;;;;;;;4.63;2.85;;;15.70;99.90;;;;;;5073873;28;20185;-59
2022/06/14 00:30:43;;;;;;;4.68;3.03;;;15.70;99.90;;;;;;5074182;28;20192;-59
2022/06/14 00:33:09;;;;;;;3.78;2.67;;;15.70;99.90;;;;;;5073407;28;20878;-60
2022/06/14 00:35:35;;;;;;;4.25;2.90;;;15.60;99.90;;;;;;5073619;28;20192;-59
2022/06/14 00:38:01;;;;;;;5.90;2.83;;;15.60;99.90;;;;;;5073635;28;20184;-60
2022/06/14 00:40:30;;;;;;;5.88;2.90;;;15.50;99.90;;;;;;5073866;28;20209;-60
2022/06/14 00:42:57;;;;;;;4.80;3.00;;;15.50;99.90;;;;;;5073478;28;20216;-59
2022/06/14 00:45:22;;;;;;;5.45;2.85;;;15.40;99.90;;;;;;5073535;28;20538;-59
2022/06/14 00:48:05;;;;;;;7.47;3.08;;;15.40;99.90;;;;;;5073679;28;20180;-60
2022/06/14 00:50:36;;;;;;;4.57;2.72;;;15.30;99.90;;;;;;5073276;28;20647;-59
2022/06/14 00:53:09;;;;;;;7.22;3.00;;;15.30;99.90;;;;;;5054258;28;20182;-59
2022/06/14 00:55:44;;;;;;;6.13;3.33;;;15.20;99.90;;;;;;5068896;28;20227;-59
2022/06/14 00:58:18;;;;;;;5.13;2.92;;;15.20;99.90;;;;;;5073566;28;20180;-59
2022/06/14 01:00:49;;;;;;;5.22;2.70;;;15.10;99.90;;;;;;5071750;28;20237;-59
2022/06/14 01:03:20;;;;;;;4.47;2.88;;;15.10;99.90;;;;;;5073053;28;20681;-59
2022/06/14 01:06:05;;;;;;;8.65;3.15;;;15.10;99.90;;;;;;5073692;28;20227;-60
2022/06/14 01:08:40;;;;;;;6.07;2.95;;;15.00;99.90;;;;;;5073294;28;20173;-59
2022/06/14 01:11:10;;;;;;;6.43;3.38;;;14.90;99.90;;;;;;5073256;28;20187;-59
2022/06/14 01:13:36;;;;;;;4.95;3.00;;;14.80;99.90;;;;;;5073464;28;20187;-59
2022/06/14 01:16:03;;;;;;;6.20;3.05;;;14.80;99.90;;;;;;5073098;28;20173;-59
2022/06/14 01:18:29;;;;;;;7.32;3.00;;;14.70;99.90;;;;;;5072445;28;20192;-59
2022/06/14 01:20:55;;;;;;;6.38;2.88;;;14.70;99.90;;;;;;5072704;28;20228;-59
2022/06/14 01:23:20;;;;;;;4.22;2.90;;;14.60;99.90;;;;;;5073087;28;20671;-59
2022/06/14 01:25:51;;;;;;;7.35;3.40;;;14.70;99.90;;;;;;5071814;28;20176;-59
2022/06/14 01:28:19;;;;;;;4.60;3.08;;;14.60;99.90;;;;;;5073278;28;20188;-59
2022/06/14 01:30:51;;;;;;;4.65;2.90;;;14.60;99.90;;;;;;5072437;28;20172;-59
2022/06/14 01:33:28;;;;;;;6.68;3.03;;;14.60;99.90;;;;;;5064990;28;20545;-59
2022/06/14 01:35:59;;;;;;;4.70;3.00;;;14.60;99.90;;;;;;5072852;28;20264;-59
2022/06/14 01:38:25;;;;;;;6.00;3.10;;;14.50;99.90;;;;;;5072736;28;20180;-59
2022/06/14 01:41:28;;;;;;;5.85;2.95;;;14.40;99.90;;;;;;5072980;28;20184;-60
2022/06/14 01:44:08;;;;;;;5.32;2.85;;;14.40;99.90;;;;;;5060980;28;20567;-60
2022/06/14 01:46:55;;;;;;;3.85;2.97;;;14.40;99.90;;;;;;5072667;28;20226;-59
2022/06/14 01:52:58;;;;;;;5.30;3.00;;;14.30;99.90;;;;;;5039610;28;20200;-60
2022/06/14 01:55:45;;;;;;;5.75;3.08;;;14.30;99.90;;;;;;5050127;28;20184;-59
2022/06/14 01:58:32;;;;;;;4.20;2.97;;;14.30;99.90;;;;;;5056034;28;20216;-59
2022/06/14 02:01:32;;;;;;;5.47;2.95;;;14.20;99.90;;;;;;5070798;28;20603;-59
2022/06/14 02:07:18;;;;;;;4.65;2.70;;;14.10;99.90;;;;;;5069516;28;20303;-59
2022/06/14 02:10:02;;;;;;;5.75;3.03;;;14.10;99.90;;;;;;5071899;28;20237;-60
2022/06/14 02:12:56;;;;;;;5.75;2.90;;;14.00;99.90;;;;;;5070492;28;20238;-59
2022/06/14 02:15:32;;;;;;;8.18;3.13;;;14.00;99.90;;;;;;5070854;28;20185;-59
2022/06/14 02:18:08;;;;;;;5.07;2.85;;;14.00;99.90;;;;;;5071807;28;20210;-60
2022/06/14 02:20:47;;;;;;;4.20;2.97;;;13.90;99.90;;;;;;5071596;28;20572;-59
2022/06/14 02:23:13;;;;;;;5.30;3.03;;;13.80;99.90;;;;;;5071627;28;20212;-59
2022/06/14 02:25:51;;;;;;;7.18;2.95;;;13.80;99.90;;;;;;5072237;28;20199;-59
2022/06/14 02:28:22;;;;;;;6.03;2.83;;;13.70;99.90;;;;;;5071967;28;20450;-59
2022/06/14 02:31:01;;;;;;;4.97;2.80;;;13.70;99.90;;;;;;5071793;28;20189;-60
2022/06/14 02:33:36;;;;;;;4.90;3.05;;;13.70;99.90;;;;;;5071507;28;20188;-59
2022/06/14 02:36:11;;;;;;;4.68;3.10;;;13.70;99.90;;;;;;5071616;28;20176;-59
2022/06/14 02:38:47;;;;;;;5.53;3.20;;;13.60;99.90;;;;;;5072162;28;20192;-59
2022/06/14 02:41:32;;;;;;;4.45;2.80;;;13.60;99.90;;;;;;5072115;28;20188;-59
2022/06/14 02:44:07;;;;;;;4.53;2.85;;;13.60;99.90;;;;;;5071356;28;20188;-59
2022/06/14 02:46:41;;;;;;;3.47;2.60;;;13.50;99.90;;;;;;5070993;28;20191;-60
2022/06/14 02:49:32;;;;;;;7.13;3.88;;;13.50;99.90;;;;;;5071088;28;20185;-59
2022/06/14 02:52:04;;;;;;;6.03;3.15;;;13.40;99.90;;;;;;5071822;28;20261;-60
2022/06/14 02:54:53;;;;;;;5.85;3.13;;;13.40;99.90;;;;;;5052155;28;20172;-59
2022/06/14 02:57:41;;;;;;;5.20;2.67;;;13.30;99.90;;;;;;5053395;28;20217;-60
2022/06/14 03:00:16;;;;;;;4.57;3.15;;;13.30;99.90;;;;;;5071937;28;20607;-59
2022/06/14 03:02:50;;;;;;;4.45;2.90;;;13.20;99.90;;;;;;5071523;28;20245;-59
2022/06/14 03:05:30;;;;;;;4.75;2.75;;;13.20;99.90;;;;;;5052009;28;20648;-59
2022/06/14 03:08:11;;;;;;;4.75;3.03;;;13.20;99.90;;;;;;5069560;28;20181;-59
2022/06/14 03:10:44;;;;;;;5.43;3.28;;;13.10;99.90;;;;;;5071950;28;20177;-59
2022/06/14 03:13:13;;;;;;;4.05;2.60;;;13.10;99.90;;;;;;5070824;28;20205;-59
2022/06/14 03:15:49;;;;;;;4.22;2.78;;;13.20;99.90;;;;;;5071351;28;20179;-60
2022/06/14 03:18:36;;;;;;;4.10;2.70;;;13.10;99.90;;;;;;5070634;28;20263;-59
2022/06/14 03:21:15;;;;;;;4.20;3.00;;;13.10;99.90;;;;;;5071335;28;20189;-59
2022/06/14 03:23:45;;;;;;;5.38;2.67;;;13.10;99.90;;;;;;5070334;28;20552;-59
2022/06/14 03:26:36;;;;;;;5.53;2.80;;;13.00;99.90;;;;;;5070362;28;20181;-59
2022/06/14 03:29:09;;;;;;;4.53;2.65;;;13.00;99.90;;;;;;5071456;28;20555;-59
2022/06/14 03:31:42;;;;;;;4.15;2.85;;;13.00;99.90;;;;;;5071519;28;20180;-59
2022/06/14 03:34:18;;;;;;;4.47;2.95;;;13.00;99.90;;;;;;5069832;28;20609;-59
2022/06/14 03:36:43;;;;;;;3.95;2.75;;;13.00;99.90;;;;;;5071752;28;20234;-59
2022/06/14 03:39:14;;;;;;;4.75;3.15;;;13.00;99.90;;;;;;5070773;28;20180;-60
2022/06/14 03:41:43;;;;;;;4.13;2.60;;;13.00;99.90;;;;;;5071018;28;20181;-59
2022/06/14 03:44:10;;;;;;;3.25;2.80;;;13.00;99.90;;;;;;5061289;28;20231;-59
2022/06/14 03:46:39;;;;;;;3.72;2.63;;;13.00;99.90;;;;;;5071794;28;20234;-59
2022/06/14 03:49:12;;;;;;;4.57;3.20;;;13.00;99.90;;;;;;5073901;28;20173;-59
2022/06/14 03:51:55;;;;;;;3.95;2.92;;;13.00;99.90;;;;;;5070190;28;20180;-60
2022/06/14 03:54:40;;;;;;;4.72;2.92;;;13.00;99.90;;;;;;5074896;28;20267;-60
2022/06/14 03:57:27;;;;;;;5.15;2.83;;;13.10;99.90;;;;;;5075064;28;20253;-60
2022/06/14 04:00:13;;;;;;;5.53;3.05;;;13.10;99.90;;;;;;5074108;28;20184;-60
2022/06/14 04:03:15;;;;;;;4.30;2.53;;;13.10;99.90;;;;;;5067678;28;20223;-59
2022/06/14 04:06:06;;;;;;;3.05;2.58;;;13.10;99.90;;;;;;5055281;28;20584;-59
2022/06/14 04:08:41;;;;;;;6.05;2.50;;;13.10;99.90;;;;;;5074515;28;20177;-60
2022/06/14 04:11:06;;;;;;;4.85;3.50;;;13.10;99.90;;;;;;5072035;28;20172;-59
2022/06/14 04:13:56;;;;;;;3.88;2.40;;;13.20;99.90;;;;;;5073239;28;20181;-59
2022/06/14 04:16:38;;;;;;;5.13;2.80;;;13.20;99.90;;;;;;5074623;28;20175;-59
2022/06/14 04:19:42;;;;;;;4.88;2.80;;;13.40;99.90;;;;;;5069363;28;20216;-60
2022/06/14 04:22:27;;;;;;;5.47;2.55;;;13.70;99.90;;;;;;5072440;28;20251;-58
2022/06/14 04:25:06;;;;;;;5.60;2.83;;;14.00;99.90;;;;;;5072127;28;20219;-59
2022/06/14 04:27:36;;;;;;;9.52;4.63;;;14.30;99.90;;;;;;5072272;28;20191;-58
2022/06/14 04:30:13;;;;;;;9.75;5.40;;;14.70;99.90;;;;;;5072290;28;20185;-58
2022/06/14 04:33:02;;;;;;;4.20;2.58;;;15.10;99.90;;;;;;5073193;28;20572;-58
2022/06/14 04:35:40;;;;;;;3.78;2.45;;;15.50;99.90;;;;;;5073221;28;20195;-58
2022/06/14 04:38:31;;;;;;;4.15;2.55;;;15.90;99.90;;;;;;5073552;28;20176;-58
2022/06/14 04:41:18;;;;;;;2.58;2.20;;;16.30;99.90;;;;;;5073957;28;20188;-58
2022/06/14 04:43:47;;;;;;;3.47;2.10;;;16.70;99.90;;;;;;5072482;28;20580;-58
2022/06/14 04:46:40;;;;;;;4.15;2.35;;;17.10;99.90;;;;;;5073670;28;20195;-59
2022/06/14 04:49:13;;;;;;;3.83;2.60;;;17.40;99.30;;;;;;5072961;28;20180;-59
2022/06/14 04:51:46;;;;;;;3.67;2.42;;;17.80;98.70;;;;;;5069360;28;20635;-59
2022/06/14 04:54:24;;;;;;;4.03;2.30;;;18.10;97.80;;;;;;5070282;28;20193;-59
2022/06/14 04:56:58;;;;;;;3.47;2.35;;;18.60;97.30;;;;;;5071976;28;20215;-60
2022/06/14 04:59:33;;;;;;;5.38;2.50;;;19.00;96.40;;;;;;5072129;28;20181;-60
2022/06/14 05:02:19;;;;;;;4.80;2.60;;;19.40;95.20;;;;;;5073250;28;20265;-60
2022/06/14 05:04:51;;;;;;;5.25;2.40;;;19.90;94.00;;;;;;5073998;28;20181;-59
2022/06/14 05:07:53;;;;;;;5.10;2.40;;;20.30;93.20;;;;;;5074028;28;20184;-59
2022/06/14 05:10:25;;;;;;;5.22;2.67;;;20.50;92.40;;;;;;5061788;28;20191;-59
2022/06/14 05:12:59;;;;;;;6.20;2.72;;;20.90;91.70;;;;;;5073368;28;20212;-59
2022/06/14 05:15:32;;;;;;;4.28;2.47;;;21.30;91.10;;;;;;5073705;28;20654;-59
2022/06/14 05:18:01;;;;;;;7.00;3.38;;;21.70;90.60;;;;;;5072756;28;20185;-59
2022/06/14 05:20:37;;;;;;;3.38;2.67;;;22.00;88.70;;;;;;5073398;28;20216;-59
2022/06/14 05:23:16;;;;;;;3.28;2.47;;;22.30;86.90;;;;;;5073750;28;20353;-59
2022/06/14 05:26:14;;;;;;;6.30;2.70;;;22.60;84.80;;;;;;5054826;28;20182;-59
2022/06/14 05:28:55;;;;;;;5.93;2.75;;;22.90;82.60;;;;;;5056542;28;20184;-59
2022/06/14 05:31:56;;;;;;;5.65;2.50;;;23.40;80.70;;;;;;5073938;28;20176;-59
2022/06/14 05:34:47;;;;;;;3.35;2.85;;;23.70;77.70;;;;;;5073289;28;20259;-60
2022/06/14 05:37:25;;;;;;;4.82;2.95;;;24.00;76.60;;;;;;5073035;28;20238;-60
2022/06/14 05:40:00;;;;;;;7.40;2.92;;;24.40;75.60;;;;;;5065826;28;20188;-60
2022/06/14 05:42:33;;;;;;;6.22;3.10;;;24.70;73.60;;;;;;5060102;28;20771;-60
2022/06/14 05:45:01;;;;;;;4.05;2.40;;;25.00;71.90;;;;;;5072608;28;20204;-60
2022/06/14 05:47:40;;;;;;;3.95;2.50;;;25.40;71.60;;;;;;5073179;28;20181;-60
2022/06/14 05:50:17;;;;;;;2.42;2.20;;;25.80;69.30;;;;;;5072847;28;20584;-60
2022/06/14 05:52:54;;;;;;;4.25;2.78;;;26.20;67.50;;;;;;5073320;28;20176;-59
2022/06/14 05:55:26;;;;;;;4.57;2.45;;;26.50;65.60;;;;;;5073364;28;20229;-60
2022/06/14 05:58:22;;;;;;;4.63;2.42;;;26.70;63.80;;;;;;5073174;28;20584;-60
2022/06/14 06:00:57;;;;;;;5.40;2.08;;;26.90;63.20;;;;;;5073457;28;20207;-60
2022/06/14 06:03:32;;;;;;;4.00;2.10;;;27.30;60.70;;;;;;5073049;28;20212;-61
2022/06/14 06:06:20;;;;;;;3.88;2.03;;;27.60;59.60;;;;;;5073058;28;20251;-60
2022/06/14 06:08:50;;;;;;;3.15;2.17;;;27.80;57.60;;;;;;5073008;28;20643;-60
2022/06/14 06:11:35;;;;;;;4.72;2.08;;;27.80;56.80;;;;;;5072700;28;20185;-60
2022/06/14 06:14:07;;;;;;;3.75;2.15;;;27.80;55.50;;;;;;5072065;28;20583;-60
2022/06/14 06:17:03;;;;;;;2.10;1.90;;;27.60;55.30;;;;;;5062725;28;20177;-59
2022/06/14 06:20:09;;;;;;;3.63;2.35;;;27.60;55.20;;;;;;5072180;28;20256;-60
2022/06/14 06:22:39;;;;;;;4.82;2.28;;;27.90;55.90;;;;;;5071689;28;20303;-60
2022/06/14 06:25:28;;;;;;;3.42;2.20;;;28.30;55.20;;;;;;5072323;28;20635;-60
2022/06/14 06:28:24;;;;;;;5.38;2.58;;;28.50;54.20;;;;;;5072066;28;20185;-60
2022/06/14 06:31:00;;;;;;;3.10;1.80;;;28.60;54.20;;;;;;5072357;28;20259;-64
2022/06/14 06:33:29;;;;;;;10.27;2.85;;;28.90;53.30;;;;;;5072368;28;20295;-60
2022/06/14 06:36:13;;;;;;;3.72;2.20;;;29.00;53.30;;;;;;5072381;28;20765;-60
2022/06/14 06:39:05;;;;;;;4.90;1.92;;;29.30;52.10;;;;;;5072606;28;20177;-60
2022/06/14 06:41:50;;;;;;;4.95;2.72;;;29.90;51.80;;;;;;5071385;28;20694;-61
2022/06/14 06:44:43;;;;;;;5.25;2.15;;;30.40;50.60;;;;;;5072590;28;20194;-60
2022/06/14 06:47:11;;;;;;;7.22;2.80;;;30.70;49.20;;;;;;5072401;28;20181;-60
2022/06/14 06:50:01;;;;;;;4.28;1.90;;;31.00;49.40;;;;;;5072502;28;20582;-60
2022/06/14 06:52:43;;;;;;;5.55;2.50;;;31.00;48.00;;;;;;5072595;28;20173;-60
2022/06/14 06:55:36;;;;;;;5.35;2.85;;;31.00;48.20;;;;;;5072386;28;20192;-60
2022/06/14 06:58:29;;;;;;;3.35;2.10;;;31.30;48.10;;;;;;5072384;28;20185;-60
2022/06/14 07:01:01;;;;;;;5.82;2.50;;;31.50;47.90;;;;;;5071623;28;20193;-60
2022/06/14 07:03:47;;;;;;;6.95;2.58;;;31.90;46.90;;;;;;5072240;28;20223;-60
2022/06/14 07:06:24;;;;;;;7.80;2.30;;;32.00;46.70;;;;;;5072178;28;20573;-60
2022/06/14 07:09:15;;;;;;;6.30;2.35;;;32.20;45.70;;;;;;5072330;28;20176;-60
2022/06/14 07:11:47;;;;;;;4.68;2.17;;;32.40;46.20;;;;;;5072159;28;20709;-60
2022/06/14 07:14:21;;;;;;;3.72;2.17;;;32.60;44.80;;;;;;5072163;28;20177;-60
2022/06/14 07:17:19;;;;;;;3.30;2.03;;;32.60;45.00;;;;;;5072347;28;20616;-60
2022/06/14 07:19:57;;;;;;;3.85;2.30;;;32.70;45.10;;;;;;5071451;28;20269;-60
2022/06/14 07:22:31;;;;;;;4.47;2.20;;;32.80;44.80;;;;;;5072100;28;20204;-60
2022/06/14 07:25:12;;;;;;;4.13;2.30;;;33.00;44.50;;;;;;5076082;28;20188;-60
2022/06/14 07:28:05;;;;;;;4.78;2.10;;;33.30;44.70;;;;;;5076186;28;20176;-60
2022/06/14 07:30:45;;;;;;;3.20;2.33;;;33.40;43.70;;;;;;5075870;28;20572;-61
2022/06/14 07:33:11;;;;;;;4.97;2.30;;;33.40;43.10;;;;;;5075879;28;20507;-60
2022/06/14 07:36:07;;;;;;;4.03;2.45;;;33.40;43.90;;;;;;5075960;28;20733;-63
2022/06/14 07:38:51;;;;;;;4.28;2.40;;;33.60;43.50;;;;;;5075865;28;20168;-60
2022/06/14 07:41:43;;;;;;;3.65;2.17;;;33.80;43.10;;;;;;5075809;28;20175;-60
2022/06/14 07:44:27;;;;;;;5.80;2.08;;;33.80;43.00;;;;;;5075783;28;20202;-58
2022/06/14 07:47:01;;;;;;;6.25;2.28;;;33.70;43.40;;;;;;5075568;28;20200;-59
2022/06/14 07:49:56;;;;;;;3.50;2.28;;;33.80;43.60;;;;;;5075573;28;20175;-59
2022/06/14 07:52:35;;;;;;;4.65;2.20;;;34.00;42.80;;;;;;5075444;28;20528;-59
2022/06/14 07:55:27;;;;;;;4.28;2.42;;;33.80;43.00;;;;;;5075509;28;20716;-59
2022/06/14 07:57:58;;;;;;;3.40;2.15;;;33.70;42.30;;;;;;5074895;28;20279;-59
2022/06/14 08:03:48;;;;;;;4.10;2.42;;;33.80;42.80;;;;;;5075502;28;20744;-59
2022/06/14 08:06:27;;;;;;;3.88;2.15;;;33.80;42.90;;;;;;5074254;28;20196;-59
2022/06/14 08:08:59;;;;;;;5.95;1.85;;;33.80;42.00;;;;;;5075284;28;20183;-59
2022/06/14 08:11:41;;;;;;;4.65;2.13;;;33.70;42.00;;;;;;5075267;28;20175;-59
2022/06/14 08:14:17;;;;;;;3.63;1.98;;;33.70;42.20;;;;;;5075131;28;20176;-59
2022/06/14 08:16:44;;;;;;;4.57;2.20;;;33.60;41.60;;;;;;5075048;28;20669;-59
2022/06/14 08:19:16;;;;;;;2.50;2.10;;;33.60;42.90;;;;;;5074838;28;20228;-59
2022/06/14 08:21:46;;;;;;;3.45;1.95;;;33.40;41.40;;;;;;5074929;28;20246;-59
2022/06/14 08:24:18;;;;;;;5.75;2.15;;;33.00;42.20;;;;;;5074923;28;20249;-59
2022/06/14 08:27:09;;;;;;;3.45;2.30;;;32.60;40.30;;;;;;5075012;28;20175;-60
2022/06/14 08:29:52;;;;;;;3.38;1.77;;;32.70;41.70;;;;;;5074991;28;20176;-59
2022/06/14 08:32:39;;;;;;;3.22;1.98;;;33.00;42.30;;;;;;5074803;28;20180;-59
2022/06/14 08:35:12;;;;;;;3.63;2.00;;;33.20;41.40;;;;;;5074453;28;20168;-59
2022/06/14 08:37:46;;;;;;;5.15;2.22;;;33.10;40.20;;;;;;5074809;28;20215;-59
2022/06/14 08:40:40;;;;;;;3.85;2.17;;;32.60;40.10;;;;;;5074743;28;20168;-59
2022/06/14 08:43:11;;;;;;;4.22;2.35;;;32.20;41.90;;;;;;5074550;28;20227;-59
2022/06/14 08:46:04;;;;;;;3.58;2.00;;;32.10;41.10;;;;;;5074566;28;20690;-59
2022/06/14 08:48:41;;;;;;;5.55;2.10;;;32.10;40.30;;;;;;5074713;28;20188;-59
2022/06/14 08:51:21;;;;;;;4.88;2.05;;;31.80;40.60;;;;;;5074490;28;20264;-59
2022/06/14 08:54:27;;;;;;;3.22;2.08;;;31.20;41.00;;;;;;5074499;28;20233;-59
2022/06/14 08:57:23;;;;;;;4.55;2.10;;;31.00;41.90;;;;;;5074355;28;20180;-59
2022/06/14 09:00:30;;;;;;;4.10;2.10;;;30.90;42.20;;;;;;5074361;28;20196;-59
2022/06/14 09:03:21;;;;;;;4.22;2.17;;;31.10;42.70;;;;;;5073495;28;20227;-59
2022/06/14 09:06:32;;;;;;;4.60;2.30;;;31.20;42.60;;;;;;5074326;28;20180;-60
2022/06/14 09:09:17;;;;;;;5.38;2.50;;;31.30;41.40;;;;;;5072799;28;20276;-60
2022/06/14 09:12:15;;;;;;;4.25;2.05;;;31.10;42.10;;;;;;5074053;28;20264;-60
2022/06/14 09:15:16;;;;;;;4.50;2.63;;;31.10;42.20;;;;;;5074061;28;20188;-60
2022/06/14 09:18:03;;;;;;;3.20;2.03;;;31.30;42.60;;;;;;5073643;28;20192;-60
2022/06/14 09:20:49;;;;;;;5.47;2.70;;;31.50;42.20;;;;;;5073977;28;20220;-60
2022/06/14 09:23:17;;;;;;;4.82;2.40;;;31.60;42.20;;;;;;5073722;28;20217;-60
2022/06/14 09:26:20;;;;;;;4.88;2.05;;;31.40;43.20;;;;;;5073843;28;20173;-60
2022/06/14 09:29:15;;;;;;;4.13;2.22;;;31.40;43.20;;;;;;5073792;28;20255;-60
2022/06/14 09:31:59;;;;;;;4.22;1.95;;;31.60;42.20;;;;;;5074041;28;20173;-61
2022/06/14 09:34:33;;;;;;;4.35;2.50;;;31.50;42.10;;;;;;5073760;28;20670;-59
2022/06/14 09:37:16;;;;;;;4.13;2.47;;;31.50;43.70;;;;;;5073533;28;20237;-59
2022/06/14 09:40:10;;;;;;;7.85;2.75;;;31.60;42.00;;;;;;5073529;28;20199;-60
2022/06/14 09:43:17;;;;;;;4.75;2.35;;;31.60;43.50;;;;;;5073539;28;20698;-60
2022/06/14 09:46:14;;;;;;;4.82;2.45;;;31.50;42.40;;;;;;5072785;28;20173;-59
2022/06/14 09:48:43;;;;;;;3.30;2.33;;;31.70;43.20;;;;;;5073250;28;20192;-60
2022/06/14 09:51:36;;;;;;;5.47;2.30;;;31.90;43.60;;;;;;5073255;28;20640;-60
2022/06/14 09:54:39;;;;;;;5.60;2.45;;;32.00;41.30;;;;;;5073222;28;20180;-60
2022/06/14 09:57:08;;;;;;;4.97;2.58;;;31.90;41.50;;;;;;5073223;28;20222;-60
2022/06/14 09:59:55;;;;;;;7.47;2.83;;;31.70;40.70;;;;;;5073151;28;20222;-60
2022/06/14 10:02:32;;;;;;;5.57;2.08;;;31.50;40.90;;;;;;5073007;28;20225;-60
2022/06/14 10:05:03;;;;;;;3.38;2.35;;;31.50;40.80;;;;;;5073068;28;20209;-60
2022/06/14 10:07:55;;;;;;;2.95;2.22;;;31.70;41.20;;;;;;5073048;28;20185;-60
2022/06/14 10:10:32;;;;;;;5.50;2.03;;;31.90;41.60;;;;;;5072899;28;20185;-60
2022/06/14 10:13:01;;;;;;;4.18;2.38;;;31.90;40.80;;;;;;5072721;28;20573;-60
2022/06/14 10:15:46;;;;;;;6.60;2.72;;;31.80;41.30;;;;;;5072901;28;20169;-60
2022/06/14 10:18:44;;;;;;;2.70;2.10;;;31.60;41.00;;;;;;5072022;28;20189;-60
2022/06/14 10:21:17;;;;;;;3.97;2.05;;;31.50;40.50;;;;;;5072720;28;20204;-60
2022/06/14 10:24:19;;;;;;;4.38;2.13;;;31.40;40.50;;;;;;5072706;28;20224;-59
2022/06/14 10:30:05;;;;;;;3.38;2.13;;;31.30;40.60;;;;;;5072821;28;20217;-59
2022/06/14 10:33:01;;;;;;;5.25;2.35;;;31.20;39.20;;;;;;5072630;28;20651;-59
2022/06/14 10:35:46;;;;;;;4.40;2.00;;;31.10;39.30;;;;;;5072564;28;20693;-59
2022/06/14 10:38:25;;;;;;;4.97;1.90;;;31.00;39.30;;;;;;5072330;28;20234;-60
2022/06/14 10:41:21;;;;;;;3.05;1.90;;;31.20;39.50;;;;;;5072374;28;20184;-59
2022/06/14 10:44:07;;;;;;;4.25;2.25;;;31.00;39.70;;;;;;5072366;28;20212;-61
2022/06/14 10:47:18;;;;;;;5.72;2.30;;;31.20;41.40;;;;;;5072252;28;20193;-60
2022/06/14 10:50:19;;;;;;;5.03;2.05;;;31.40;39.70;;;;;;5071308;28;20188;-60
2022/06/14 10:52:54;;;;;;;5.70;2.20;;;31.60;39.70;;;;;;5070063;28;20191;-61
2022/06/14 10:55:38;;;;;;;5.32;1.85;;;31.40;38.50;;;;;;5072086;28;20188;-60
2022/06/14 10:58:09;;;;;;;5.05;2.03;;;31.20;39.40;;;;;;5072147;28;20180;-60
2022/06/14 11:00:54;;;;;;;2.45;2.22;;;31.30;40.30;;;;;;5072204;28;20674;-59
2022/06/14 11:03:50;;;;;;;5.65;2.30;;;31.40;38.80;;;;;;5072247;28;20208;-59
2022/06/14 11:06:24;;;;;;;5.07;2.17;;;31.60;39.40;;;;;;5071972;28;20176;-58
2022/06/14 11:09:24;;;;;;;4.10;2.10;;;31.50;37.70;;;;;;5072141;28;20180;-59
2022/06/14 11:12:10;;;;;;;4.75;1.90;;;31.30;38.60;;;;;;5072203;28;20180;-59
2022/06/14 11:15:00;;;;;;;4.03;2.10;;;31.00;38.70;;;;;;5072121;28;20172;-59
2022/06/14 11:18:09;;;;;;;4.53;2.10;;;30.80;39.60;;;;;;5071641;28;20204;-59
2022/06/14 11:20:58;;;;;;;4.93;2.13;;;30.90;40.20;;;;;;5071868;28;20329;-59
2022/06/14 11:23:45;;;;;;;4.85;2.45;;;30.70;39.10;;;;;;5072189;28;20215;-59
2022/06/14 11:26:45;;;;;;;3.58;2.20;;;30.60;39.00;;;;;;5071749;28;20173;-59
2022/06/14 11:29:29;;;;;;;5.68;2.10;;;30.40;39.40;;;;;;5070489;28;20378;-59
2022/06/14 11:32:22;;;;;;;3.90;2.17;;;30.20;39.40;;;;;;5071826;28;20188;-59
2022/06/14 11:35:10;;;;;;;3.38;2.17;;;30.10;40.60;;;;;;5071938;28;20173;-59
2022/06/14 11:37:44;;;;;;;4.00;2.10;;;30.40;41.30;;;;;;5071659;28;20259;-59
2022/06/14 11:40:18;;;;;;;2.95;2.00;;;30.60;40.80;;;;;;5070803;28;20184;-59
2022/06/14 11:42:58;;;;;;;5.68;2.40;;;30.40;40.30;;;;;;5071747;28;20287;-59
2022/06/14 11:45:33;;;;;;;4.55;2.50;;;30.30;40.80;;;;;;5071811;28;20172;-59
2022/06/14 11:48:14;;;;;;;2.40;2.03;;;30.20;41.10;;;;;;5071674;28;20678;-59
2022/06/14 11:50:58;;;;;;;4.07;2.00;;;30.10;41.30;;;;;;5070523;28;20185;-59
2022/06/14 11:53:41;;;;;;;2.90;2.05;;;30.10;41.70;;;;;;5071853;28;20175;-59
2022/06/14 11:56:21;;;;;;;6.32;2.28;;;30.10;40.70;;;;;;5071720;28;20355;-59
2022/06/14 11:59:24;;;;;;;6.43;2.35;;;30.30;40.90;;;;;;5071735;28;20173;-59
2022/06/14 12:02:11;;;;;;;2.92;2.22;;;30.60;39.60;;;;;;5071547;28;20253;-59
2022/06/14 12:05:08;;;;;;;4.53;1.92;;;30.20;39.30;;;;;;5071785;28;20546;-59
2022/06/14 12:07:42;;;;;;;6.82;2.33;;;30.10;38.70;;;;;;5071515;28;20177;-59
2022/06/14 12:10:52;;;;;;;3.85;1.70;;;30.20;38.80;;;;;;5074169;28;20204;-59
2022/06/14 12:13:51;;;;;;;2.25;1.80;;;30.40;38.70;;;;;;5075200;28;20172;-59
2022/06/14 12:16:57;;;;;;;4.30;2.40;;;30.50;38.50;;;;;;5075143;28;20180;-59
2022/06/14 12:19:33;;;;;;;3.83;1.98;;;30.40;38.70;;;;;;5074975;28;20399;-58
2022/06/14 12:22:34;;;;;;;3.28;1.98;;;30.40;39.70;;;;;;5074865;28;20184;-58
2022/06/14 12:27:57;;;;;;;4.45;2.20;;;30.20;39.30;;;;;;5075278;28;20252;-59
2022/06/14 12:30:25;;;;;;;4.30;2.00;;;30.10;38.90;;;;;;5074903;28;20188;-58
2022/06/14 12:33:02;;;;;;;3.15;2.13;;;30.00;39.50;;;;;;5074836;28;20177;-59
2022/06/14 12:35:33;;;;;;;5.90;2.08;;;30.20;40.30;;;;;;5074933;28;20285;-59
2022/06/14 12:38:05;;;;;;;6.22;2.25;;;30.40;40.20;;;;;;5074827;28;20207;-59
2022/06/14 12:40:42;;;;;;;4.72;1.92;;;30.60;39.30;;;;;;5074992;28;20184;-58
2022/06/14 12:43:23;;;;;;;4.15;1.90;;;30.70;39.10;;;;;;5074595;28;20212;-59
2022/06/14 12:46:09;;;;;;;3.53;1.85;;;30.70;38.70;;;;;;5074840;28;20176;-59
2022/06/14 12:48:40;;;;;;;3.53;2.30;;;30.70;40.90;;;;;;5074498;28;20181;-58
2022/06/14 12:51:16;;;;;;;4.32;2.17;;;30.70;40.10;;;;;;5074556;28;20551;-59
2022/06/14 12:53:50;;;;;;;5.88;2.10;;;30.60;39.70;;;;;;5074591;28;20180;-59
2022/06/14 12:56:26;;;;;;;4.88;2.50;;;30.50;40.60;;;;;;5074505;28;20180;-58
2022/06/14 12:58:58;;;;;;;3.47;2.03;;;30.50;40.10;;;;;;5074181;28;20678;-58
2022/06/14 13:01:36;;;;;;;4.50;2.00;;;30.50;41.30;;;;;;5074322;28;20172;-58
2022/06/14 13:04:05;;;;;;;4.10;2.33;;;30.50;41.40;;;;;;5074086;28;20218;-58
2022/06/14 13:06:53;;;;;;;4.78;2.03;;;30.40;39.40;;;;;;5074493;28;20168;-58
2022/06/14 13:09:36;;;;;;;4.18;2.17;;;30.40;39.20;;;;;;5074430;28;20203;-58
2022/06/14 13:12:05;;;;;;;3.50;2.22;;;30.30;39.20;;;;;;5073995;28;20600;-59
2022/06/14 13:14:40;;;;;;;3.85;1.90;;;30.40;39.70;;;;;;5072811;28;20177;-58
2022/06/14 13:17:28;;;;;;;5.65;3.08;;;30.40;38.90;;;;;;5074001;28;20176;-58
2022/06/14 13:20:01;;;;;;;4.57;2.00;;;30.40;39.00;;;;;;5073148;28;20711;-58
2022/06/14 13:23:25;;;;;;;5.65;1.98;;;30.10;37.90;;;;;;5073557;28;20269;-58
2022/06/14 13:26:05;;;;;;;6.03;2.10;;;30.00;37.80;;;;;;5071636;28;20242;-59
2022/06/14 13:28:45;;;;;;;4.57;1.92;;;29.90;38.20;;;;;;5073984;28;20184;-58
2022/06/14 13:31:39;;;;;;;3.45;2.25;;;29.90;39.40;;;;;;5073722;28;20176;-59
2022/06/14 13:34:19;;;;;;;2.28;1.92;;;29.70;39.40;;;;;;5073739;28;20176;-60
2022/06/14 13:37:10;;;;;;;3.65;1.98;;;29.80;40.10;;;;;;5073599;28;20644;-60
2022/06/14 13:39:49;;;;;;;3.53;2.13;;;29.90;39.20;;;;;;5073581;28;20177;-59
2022/06/14 13:42:25;;;;;;;3.60;2.30;;;29.90;39.70;;;;;;5073307;28;20212;-60
2022/06/14 13:45:18;;;;;;;4.72;2.42;;;29.90;40.80;;;;;;5073497;28;20180;-60
2022/06/14 13:48:06;;;;;;;3.30;2.20;;;29.90;40.80;;;;;;5072898;28;20199;-59
2022/06/14 13:50:40;;;;;;;5.13;2.28;;;30.00;40.10;;;;;;5073070;28;20271;-59
2022/06/14 13:53:13;;;;;;;4.05;2.03;;;29.70;39.30;;;;;;5073263;28;20176;-59
2022/06/14 13:56:03;;;;;;;4.00;2.15;;;29.60;39.90;;;;;;5073161;28;20652;-59
2022/06/14 13:59:01;;;;;;;3.70;2.00;;;29.60;40.40;;;;;;5073202;28;20187;-59
2022/06/14 14:01:30;;;;;;;4.20;2.20;;;29.50;41.10;;;;;;5073166;28;20636;-59
2022/06/14 14:04:22;;;;;;;3.35;2.20;;;29.40;41.30;;;;;;5072947;28;20262;-59
2022/06/14 14:07:03;;;;;;;5.20;2.50;;;29.20;41.70;;;;;;5071987;28;20570;-60
2022/06/14 14:09:38;;;;;;;2.85;2.00;;;28.90;41.80;;;;;;5073136;28;20242;-59
2022/06/14 14:12:22;;;;;;;5.57;2.10;;;28.80;41.70;;;;;;5072850;28;20179;-59
2022/06/14 14:15:11;;;;;;;6.70;2.22;;;28.70;41.80;;;;;;5072939;28;20191;-59